Time;durP1;ratioP1;P1;durP2;ratioP2;P2;SDS_P1;SDS_P2;PMS_P1;PMS_P2;Temp;Humidity;BMP_temperature;BMP_pressure;BME280_temperature;BME280_humidity;BME280_pressure;Samples;Min_cycle;Max_cycle;Signal;HPM_P1;HPM_P2
2023/06/21 00:00:45;;;;;;;4.32;3.33;;;;;;;;;;5030142;28;20104;-74
2023/06/21 00:03:11;;;;;;;6.10;3.70;;;;;;;;;;5015653;28;20021;-74
2023/06/21 00:05:38;;;;;;;6.25;3.92;;;;;;;;;;5019303;28;20475;-74
2023/06/21 00:08:04;;;;;;;10.73;3.90;;;;;;;;;;5021129;28;20053;-74
2023/06/21 00:10:30;;;;;;;5.80;3.80;;;;;;;;;;5033970;28;20056;-74
2023/06/21 00:12:55;;;;;;;5.55;3.47;;;;;;;;;;5027266;28;20473;-74
2023/06/21 00:15:22;;;;;;;5.78;3.95;;;;;;;;;;5031318;28;20019;-74
2023/06/21 00:17:48;;;;;;;5.57;4.13;;;;;;;;;;5035999;28;20421;-75
2023/06/21 00:20:14;;;;;;;5.70;3.72;;;;;;;;;;5033418;28;20025;-74
2023/06/21 00:22:40;;;;;;;6.38;3.83;;;;;;;;;;5030491;28;20397;-74
2023/06/21 00:25:07;;;;;;;6.10;4.07;;;;;;;;;;5014555;28;20049;-74
2023/06/21 00:27:34;;;;;;;5.80;4.30;;;;;;;;;;5015970;28;20076;-74
2023/06/21 00:29:59;;;;;;;6.53;4.47;;;;;;;;;;5031913;28;20457;-74
2023/06/21 00:32:25;;;;;;;7.15;4.20;;;;;;;;;;5020890;28;20034;-74
2023/06/21 00:34:50;;;;;;;9.45;4.20;;;;;;;;;;5033454;28;20100;-74
2023/06/21 00:37:16;;;;;;;7.40;3.83;;;;;;;;;;5032058;28;20060;-75
2023/06/21 00:39:41;;;;;;;5.43;4.22;;;;;;;;;;5013148;28;20390;-74
2023/06/21 00:42:08;;;;;;;6.53;3.95;;;;;;;;;;5013960;28;20112;-74
2023/06/21 00:44:33;;;;;;;6.35;4.22;;;;;;;;;;5032974;28;20068;-74
2023/06/21 00:46:59;;;;;;;5.38;4.32;;;;;;;;;;5038340;28;20029;-74
2023/06/21 00:49:25;;;;;;;9.93;4.40;;;;;;;;;;5017378;28;20436;-74
2023/06/21 00:51:56;;;;;;;6.72;4.82;;;;;;;;;;5032032;28;20060;-74
2023/06/21 00:54:22;;;;;;;7.32;4.85;;;;;;;;;;5020984;28;20519;-74
2023/06/21 00:56:47;;;;;;;7.45;4.57;;;;;;;;;;5019175;28;20065;-74
2023/06/21 00:59:13;;;;;;;7.43;4.68;;;;;;;;;;5036914;28;20033;-75
2023/06/21 01:01:39;;;;;;;9.48;4.57;;;;;;;;;;5030079;28;20108;-76
2023/06/21 01:04:07;;;;;;;6.80;4.65;;;;;;;;;;5021436;28;20029;-74
2023/06/21 01:07:10;;;;;;;9.50;5.30;;;;;;;;;;5021438;28;20123;-74
2023/06/21 01:09:45;;;;;;;6.72;4.78;;;;;;;;;;4998824;28;20379;-74
2023/06/21 01:12:18;;;;;;;12.68;5.40;;;;;;;;;;5034822;28;20470;-74
2023/06/21 01:14:49;;;;;;;;;;;;;;;;;;5030059;28;20120;-75
2023/06/21 01:17:16;;;;;;;11.00;5.20;;;;;;;;;;5033076;28;19983;-75
2023/06/21 01:19:45;;;;;;;7.55;4.75;;;;;;;;;;5018425;28;20409;-74
2023/06/21 01:22:39;;;;;;;7.70;5.03;;;;;;;;;;5035684;28;20029;-74
2023/06/21 01:25:37;;;;;;;7.63;4.90;;;;;;;;;;5037314;28;20498;-74
2023/06/21 01:28:31;;;;;;;7.20;5.63;;;;;;;;;;5028891;28;20082;-74
2023/06/21 01:30:58;;;;;;;10.02;5.30;;;;;;;;;;5028496;28;20025;-74
2023/06/21 01:33:26;;;;;;;10.38;5.75;;;;;;;;;;5031954;28;20026;-75
2023/06/21 01:35:54;;;;;;;6.93;5.38;;;;;;;;;;5011360;28;20040;-74
2023/06/21 01:38:20;;;;;;;7.70;5.60;;;;;;;;;;5032442;28;20100;-74
2023/06/21 01:40:46;;;;;;;8.27;5.70;;;;;;;;;;5031171;28;20108;-74
2023/06/21 01:43:13;;;;;;;9.57;6.18;;;;;;;;;;5016240;28;20529;-74
2023/06/21 01:45:38;;;;;;;7.72;5.90;;;;;;;;;;5031726;28;20100;-75
2023/06/21 01:48:05;;;;;;;8.00;6.10;;;;;;;;;;5027824;28;20474;-75
2023/06/21 01:50:31;;;;;;;11.27;6.85;;;;;;;;;;5027947;28;20029;-74
2023/06/21 01:52:57;;;;;;;8.68;6.50;;;;;;;;;;5032083;28;20029;-75
2023/06/21 01:55:24;;;;;;;10.13;7.32;;;;;;;;;;5018949;28;20149;-74
2023/06/21 01:57:51;;;;;;;7.93;6.13;;;;;;;;;;5040487;28;20030;-74
2023/06/21 02:00:17;;;;;;;8.05;6.05;;;;;;;;;;5038188;28;20025;-74
2023/06/21 02:02:50;;;;;;;8.82;7.10;;;;;;;;;;5045839;28;20083;-75
2023/06/21 02:05:16;;;;;;;8.40;7.30;;;;;;;;;;5007498;28;20487;-74
2023/06/21 02:07:45;;;;;;;10.10;6.82;;;;;;;;;;5015533;28;20496;-74
2023/06/21 02:10:12;;;;;;;9.05;6.90;;;;;;;;;;5020971;28;20028;-74
2023/06/21 02:12:41;;;;;;;9.32;7.28;;;;;;;;;;5029728;28;20504;-75
2023/06/21 02:15:08;;;;;;;10.50;7.22;;;;;;;;;;5035044;28;20028;-74
2023/06/21 02:17:34;;;;;;;8.45;6.85;;;;;;;;;;5020540;28;20026;-74
2023/06/21 02:19:59;;;;;;;8.95;7.13;;;;;;;;;;5017032;28;20508;-74
2023/06/21 02:22:24;;;;;;;9.52;7.30;;;;;;;;;;5027722;28;20155;-75
2023/06/21 02:24:50;;;;;;;8.32;6.82;;;;;;;;;;5027410;28;20087;-74
2023/06/21 02:27:16;;;;;;;10.57;8.20;;;;;;;;;;5016052;28;20029;-75
2023/06/21 02:29:41;;;;;;;13.73;8.10;;;;;;;;;;5031902;28;20032;-74
2023/06/21 02:32:07;;;;;;;10.77;7.97;;;;;;;;;;5020336;28;20389;-75
2023/06/21 02:34:32;;;;;;;10.75;7.30;;;;;;;;;;5031776;28;20112;-74
2023/06/21 02:36:57;;;;;;;8.77;7.53;;;;;;;;;;5031788;28;20115;-74
2023/06/21 02:39:24;;;;;;;10.35;8.20;;;;;;;;;;5010053;28;20033;-74
2023/06/21 02:41:51;;;;;;;11.85;7.97;;;;;;;;;;5014452;28;20421;-74
2023/06/21 02:44:17;;;;;;;9.82;8.00;;;;;;;;;;5016466;28;20108;-74
2023/06/21 02:46:42;;;;;;;9.98;8.15;;;;;;;;;;5019022;28;20460;-74
2023/06/21 02:49:07;;;;;;;9.73;8.05;;;;;;;;;;5031817;28;20026;-74
2023/06/21 02:51:32;;;;;;;11.82;8.35;;;;;;;;;;5018100;28;20036;-74
2023/06/21 02:53:58;;;;;;;10.52;7.28;;;;;;;;;;5019764;28;20084;-74
2023/06/21 02:56:23;;;;;;;10.30;7.93;;;;;;;;;;5039722;28;20527;-74
2023/06/21 02:58:49;;;;;;;11.52;8.15;;;;;;;;;;5034331;28;20025;-74
2023/06/21 03:01:15;;;;;;;9.95;7.40;;;;;;;;;;5036236;28;20026;-75
2023/06/21 03:03:44;;;;;;;9.50;7.90;;;;;;;;;;5037523;28;20021;-75
2023/06/21 03:06:11;;;;;;;10.07;7.70;;;;;;;;;;5040966;28;20025;-75
2023/06/21 03:08:38;;;;;;;9.40;7.63;;;;;;;;;;5032270;28;20045;-74
2023/06/21 03:11:08;;;;;;;12.90;7.93;;;;;;;;;;5023352;28;20116;-74
2023/06/21 03:13:35;;;;;;;9.57;8.05;;;;;;;;;;5033163;28;20390;-74
2023/06/21 03:16:02;;;;;;;10.32;8.63;;;;;;;;;;5036443;28;20083;-74
2023/06/21 03:18:27;;;;;;;11.20;8.30;;;;;;;;;;5040092;28;20485;-74
2023/06/21 03:20:52;;;;;;;10.65;7.78;;;;;;;;;;5034778;28;20028;-74
2023/06/21 03:23:18;;;;;;;9.63;7.65;;;;;;;;;;5036336;28;20021;-75
2023/06/21 03:25:43;;;;;;;11.45;8.85;;;;;;;;;;5021725;28;20482;-74
2023/06/21 03:28:09;;;;;;;10.02;7.82;;;;;;;;;;5034219;28;20021;-75
2023/06/21 03:30:34;;;;;;;10.98;8.13;;;;;;;;;;5019063;28;20025;-74
2023/06/21 03:32:59;;;;;;;9.25;7.80;;;;;;;;;;5035043;28;20036;-74
2023/06/21 03:35:28;;;;;;;13.35;8.48;;;;;;;;;;5035747;28;20025;-74
2023/06/21 03:37:54;;;;;;;9.43;7.35;;;;;;;;;;5035271;28;20028;-75
2023/06/21 03:40:20;;;;;;;9.88;7.70;;;;;;;;;;5034481;28;20033;-76
2023/06/21 03:42:46;;;;;;;9.80;7.65;;;;;;;;;;5026215;28;20029;-74
2023/06/21 03:45:12;;;;;;;10.10;7.60;;;;;;;;;;5017928;28;20029;-75
2023/06/21 03:47:39;;;;;;;11.45;8.02;;;;;;;;;;5017758;28;20053;-74
2023/06/21 03:50:06;;;;;;;9.20;7.30;;;;;;;;;;5019920;28;20103;-75
2023/06/21 03:52:31;;;;;;;10.95;8.25;;;;;;;;;;5041452;28;20036;-75
2023/06/21 03:54:56;;;;;;;10.95;7.95;;;;;;;;;;5036509;28;20025;-74
2023/06/21 03:57:22;;;;;;;10.18;7.78;;;;;;;;;;5039426;28;20037;-75
2023/06/21 03:59:47;;;;;;;11.40;8.23;;;;;;;;;;5031914;28;20095;-74
2023/06/21 04:02:13;;;;;;;9.43;7.25;;;;;;;;;;5042677;28;20032;-75
2023/06/21 04:04:38;;;;;;;9.60;7.88;;;;;;;;;;5017927;28;20040;-76
2023/06/21 04:07:04;;;;;;;9.55;7.43;;;;;;;;;;5028822;28;20067;-75
2023/06/21 04:09:29;;;;;;;15.23;9.10;;;;;;;;;;5013936;28;20124;-75
2023/06/21 04:11:55;;;;;;;10.23;7.93;;;;;;;;;;5022313;28;20017;-74
2023/06/21 04:14:20;;;;;;;10.60;8.07;;;;;;;;;;5028195;28;20029;-75
2023/06/21 04:16:45;;;;;;;11.48;8.60;;;;;;;;;;5032599;28;20030;-74
2023/06/21 04:19:11;;;;;;;12.75;9.45;;;;;;;;;;5034814;28;20017;-75
2023/06/21 04:21:36;;;;;;;10.18;7.97;;;;;;;;;;5030282;28;20025;-75
2023/06/21 04:24:02;;;;;;;12.60;9.00;;;;;;;;;;5025329;28;20057;-74
2023/06/21 04:26:28;;;;;;;11.10;8.57;;;;;;;;;;5023063;28;20061;-73
2023/06/21 04:28:54;;;;;;;11.60;9.00;;;;;;;;;;5030022;28;20025;-73
2023/06/21 04:31:19;;;;;;;12.77;8.95;;;;;;;;;;5035628;28;20034;-73
2023/06/21 04:33:44;;;;;;;11.05;8.45;;;;;;;;;;5013167;28;20025;-73
2023/06/21 04:36:10;;;;;;;13.60;9.63;;;;;;;;;;5033383;28;20474;-74
2023/06/21 04:38:37;;;;;;;15.73;10.10;;;;;;;;;;5013641;28;20033;-74
2023/06/21 04:41:02;;;;;;;14.23;9.48;;;;;;;;;;5010207;28;20086;-74
2023/06/21 04:43:27;;;;;;;13.48;9.63;;;;;;;;;;5015751;28;20025;-73
2023/06/21 04:45:53;;;;;;;23.70;10.30;;;;;;;;;;5031580;28;20034;-73
2023/06/21 04:48:18;;;;;;;17.08;9.95;;;;;;;;;;5011818;28;20465;-73
2023/06/21 04:50:45;;;;;;;14.40;10.48;;;;;;;;;;5023054;28;20992;-73
2023/06/21 04:53:11;;;;;;;13.00;9.68;;;;;;;;;;5026112;28;20025;-73
2023/06/21 04:55:42;;;;;;;12.43;9.88;;;;;;;;;;5023557;28;20029;-74
2023/06/21 04:58:09;;;;;;;12.23;9.82;;;;;;;;;;5029164;28;20446;-74
2023/06/21 05:00:35;;;;;;;13.15;10.68;;;;;;;;;;5024626;28;20521;-73
2023/06/21 05:03:00;;;;;;;14.82;11.23;;;;;;;;;;5031096;28;20025;-73
2023/06/21 05:05:26;;;;;;;12.70;9.50;;;;;;;;;;5023909;28;20047;-73
2023/06/21 05:07:52;;;;;;;17.58;10.88;;;;;;;;;;5019677;28;20029;-74
2023/06/21 05:10:17;;;;;;;13.30;10.85;;;;;;;;;;5003032;28;20075;-73
2023/06/21 05:12:42;;;;;;;16.02;11.80;;;;;;;;;;5010129;28;20413;-73
2023/06/21 05:15:08;;;;;;;14.57;10.45;;;;;;;;;;5026271;28;20022;-74
2023/06/21 05:17:35;;;;;;;12.93;9.98;;;;;;;;;;5017997;28;20026;-74
2023/06/21 05:20:02;;;;;;;20.42;12.52;;;;;;;;;;5007617;28;20030;-74
2023/06/21 05:22:28;;;;;;;12.35;10.32;;;;;;;;;;5008642;28;20040;-74
2023/06/21 05:24:53;;;;;;;14.63;11.05;;;;;;;;;;5034429;28;20029;-74
2023/06/21 05:27:19;;;;;;;16.30;11.52;;;;;;;;;;5026318;28;20029;-74
2023/06/21 05:29:44;;;;;;;15.07;11.55;;;;;;;;;;5012272;28;20037;-73
2023/06/21 05:32:10;;;;;;;16.60;12.05;;;;;;;;;;5012047;28;20076;-73
2023/06/21 05:34:35;;;;;;;14.68;12.40;;;;;;;;;;5011370;28;20112;-75
2023/06/21 05:37:01;;;;;;;14.60;11.27;;;;;;;;;;5021440;28;20120;-74
2023/06/21 05:39:26;;;;;;;20.08;13.38;;;;;;;;;;5020128;28;20025;-74
2023/06/21 05:41:51;;;;;;;16.20;12.18;;;;;;;;;;5025930;28;20470;-74
2023/06/21 05:44:17;;;;;;;16.92;12.95;;;;;;;;;;5021918;28;20537;-74
2023/06/21 05:46:42;;;;;;;17.63;12.98;;;;;;;;;;5019218;28;20040;-75
2023/06/21 05:49:07;;;;;;;16.27;12.27;;;;;;;;;;5004935;28;20021;-74
2023/06/21 05:51:33;;;;;;;14.85;12.07;;;;;;;;;;5012801;28;20438;-74
2023/06/21 05:53:58;;;;;;;18.90;14.57;;;;;;;;;;5031303;28;20021;-74
2023/06/21 05:56:26;;;;;;;17.80;12.90;;;;;;;;;;5032236;28;20081;-73
2023/06/21 05:58:52;;;;;;;15.32;12.35;;;;;;;;;;5020912;28;20033;-74
2023/06/21 06:01:17;;;;;;;17.80;13.55;;;;;;;;;;5028132;28;20500;-74
2023/06/21 06:03:42;;;;;;;15.30;11.40;;;;;;;;;;5014965;28;20033;-74
2023/06/21 06:06:08;;;;;;;16.33;12.60;;;;;;;;;;5029903;28;20108;-74
2023/06/21 06:08:34;;;;;;;19.40;12.35;;;;;;;;;;5024684;28;20132;-74
2023/06/21 06:10:59;;;;;;;18.33;13.15;;;;;;;;;;5036551;28;20080;-74
2023/06/21 06:13:25;;;;;;;18.48;13.55;;;;;;;;;;5027465;28;20065;-74
2023/06/21 06:15:50;;;;;;;20.27;12.32;;;;;;;;;;5015147;28;20018;-74
2023/06/21 06:18:15;;;;;;;22.27;13.13;;;;;;;;;;5031490;28;20089;-75
2023/06/21 06:20:43;;;;;;;17.90;11.45;;;;;;;;;;5008934;28;20116;-74
2023/06/21 06:23:12;;;;;;;18.95;11.90;;;;;;;;;;5009907;28;20021;-73
2023/06/21 06:25:38;;;;;;;16.58;10.93;;;;;;;;;;5007553;28;20113;-74
2023/06/21 06:28:04;;;;;;;15.07;10.85;;;;;;;;;;5034275;28;20075;-74
2023/06/21 06:30:29;;;;;;;14.40;10.50;;;;;;;;;;5038876;28;20024;-74
2023/06/21 06:32:55;;;;;;;14.35;10.38;;;;;;;;;;5037195;28;20119;-74
2023/06/21 06:35:20;;;;;;;14.00;10.43;;;;;;;;;;5036249;28;20071;-74
2023/06/21 06:37:45;;;;;;;13.45;9.85;;;;;;;;;;5039000;28;20021;-73
2023/06/21 06:40:11;;;;;;;14.13;9.85;;;;;;;;;;5032797;28;20026;-74
2023/06/21 06:42:36;;;;;;;13.98;9.85;;;;;;;;;;5037609;28;20025;-74
2023/06/21 06:45:02;;;;;;;14.57;9.65;;;;;;;;;;5004432;28;20025;-79
2023/06/21 06:47:29;;;;;;;18.70;10.00;;;;;;;;;;5036454;28;20072;-80
2023/06/21 06:49:55;;;;;;;16.98;10.23;;;;;;;;;;5015597;28;20021;-80
2023/06/21 06:52:21;;;;;;;13.25;10.10;;;;;;;;;;5016162;28;20045;-79
2023/06/21 06:54:46;;;;;;;17.80;10.02;;;;;;;;;;5031884;28;20474;-80
2023/06/21 06:57:11;;;;;;;14.55;10.30;;;;;;;;;;5022715;28;20029;-80
2023/06/21 06:59:38;;;;;;;14.40;9.68;;;;;;;;;;5033967;28;21729;-80
2023/06/21 07:02:03;;;;;;;15.07;10.15;;;;;;;;;;5015249;28;20451;-81
2023/06/21 07:04:29;;;;;;;15.60;9.02;;;;;;;;;;5034922;28;20030;-81
2023/06/21 07:06:54;;;;;;;11.23;8.23;;;;;;;;;;5014562;28;20027;-80
2023/06/21 07:09:20;;;;;;;13.45;8.82;;;;;;;;;;5013615;28;20024;-79
2023/06/21 07:11:45;;;;;;;13.13;8.73;;;;;;;;;;5015128;28;20029;-81
2023/06/21 07:14:10;;;;;;;13.32;7.53;;;;;;;;;;5031125;28;20025;-79
2023/06/21 07:16:41;;;;;;;12.45;7.63;;;;;;;;;;5034750;28;20021;-82
2023/06/21 07:19:06;;;;;;;12.77;7.82;;;;;;;;;;5034500;28;20437;-81
2023/06/21 07:21:31;;;;;;;11.13;7.75;;;;;;;;;;5018420;28;20032;-81
2023/06/21 07:23:57;;;;;;;14.52;7.30;;;;;;;;;;5017261;28;20396;-81
2023/06/21 07:26:22;;;;;;;13.05;8.10;;;;;;;;;;5017478;28;20025;-81
2023/06/21 07:28:47;;;;;;;11.13;8.07;;;;;;;;;;5033469;28;20026;-81
2023/06/21 07:31:13;;;;;;;11.93;7.78;;;;;;;;;;5034344;28;20139;-79
2023/06/21 07:33:38;;;;;;;10.32;6.88;;;;;;;;;;5034083;28;20025;-81
2023/06/21 07:36:05;;;;;;;10.88;6.07;;;;;;;;;;5034673;28;20024;-81
2023/06/21 07:38:30;;;;;;;10.15;5.85;;;;;;;;;;5026023;28;20025;-80
2023/06/21 07:40:55;;;;;;;10.10;6.10;;;;;;;;;;5022705;28;20037;-81
2023/06/21 07:43:21;;;;;;;8.30;5.88;;;;;;;;;;5018438;28;20115;-81
2023/06/21 07:45:47;;;;;;;9.32;5.47;;;;;;;;;;5031582;28;20492;-81
2023/06/21 07:48:12;;;;;;;7.97;4.93;;;;;;;;;;5034527;28;20096;-81
2023/06/21 07:50:37;;;;;;;10.90;6.15;;;;;;;;;;5014392;28;20101;-82
2023/06/21 07:53:03;;;;;;;10.45;7.00;;;;;;;;;;5013691;28;20040;-81
2023/06/21 07:55:29;;;;;;;9.98;6.78;;;;;;;;;;5019496;28;20041;-81
2023/06/21 07:57:54;;;;;;;9.13;7.13;;;;;;;;;;5020397;28;20088;-82
2023/06/21 08:00:19;;;;;;;8.48;6.38;;;;;;;;;;5020010;28;20505;-81
2023/06/21 08:02:45;;;;;;;8.45;6.18;;;;;;;;;;5031701;28;20065;-81
2023/06/21 08:05:10;;;;;;;9.32;7.38;;;;;;;;;;5036486;28;20045;-77
2023/06/21 08:07:36;;;;;;;13.65;7.20;;;;;;;;;;5039539;28;20433;-80
2023/06/21 08:10:02;;;;;;;9.85;7.32;;;;;;;;;;5037169;28;20440;-81
2023/06/21 08:12:27;;;;;;;9.25;6.57;;;;;;;;;;5035065;28;20025;-81
2023/06/21 08:14:52;;;;;;;10.57;7.20;;;;;;;;;;5030320;28;20068;-81
2023/06/21 08:17:18;;;;;;;10.63;6.68;;;;;;;;;;5033524;28;20026;-81
2023/06/21 08:19:43;;;;;;;12.68;7.70;;;;;;;;;;5032924;28;20536;-80
2023/06/21 08:22:08;;;;;;;10.77;7.55;;;;;;;;;;5017637;28;20497;-80
2023/06/21 08:24:34;;;;;;;9.85;7.55;;;;;;;;;;5017774;28;20044;-79
2023/06/21 08:27:00;;;;;;;12.20;7.18;;;;;;;;;;5013720;28;20488;-80
2023/06/21 08:29:26;;;;;;;9.80;6.10;;;;;;;;;;5033852;28;20037;-80
2023/06/21 08:31:51;;;;;;;12.45;6.85;;;;;;;;;;5023668;28;20079;-81
2023/06/21 08:34:16;;;;;;;9.15;7.38;;;;;;;;;;5033392;28;20025;-80
2023/06/21 08:36:43;;;;;;;9.82;5.88;;;;;;;;;;5022005;28;20033;-80
2023/06/21 08:39:08;;;;;;;7.22;3.75;;;;;;;;;;5018323;28;20033;-81
2023/06/21 08:41:37;;;;;;;7.40;4.50;;;;;;;;;;5017688;28;20033;-80
2023/06/21 08:44:03;;;;;;;7.00;5.00;;;;;;;;;;5030043;28;20444;-81
2023/06/21 08:46:28;;;;;;;7.70;4.97;;;;;;;;;;5017605;28;20112;-80
2023/06/21 08:48:57;;;;;;;9.07;4.68;;;;;;;;;;5023920;28;20148;-81
2023/06/21 08:51:24;;;;;;;5.35;3.00;;;;;;;;;;5033762;28;20029;-78
2023/06/21 08:53:53;;;;;;;4.03;2.38;;;;;;;;;;5028332;28;20040;-80
2023/06/21 08:56:23;;;;;;;5.82;3.22;;;;;;;;;;5041751;28;20389;-79
2023/06/21 08:58:57;;;;;;;5.50;3.53;;;;;;;;;;5021352;28;20029;-80
2023/06/21 09:01:25;;;;;;;4.65;3.22;;;;;;;;;;5021741;28;20024;-80
2023/06/21 09:03:58;;;;;;;4.90;3.03;;;;;;;;;;5032982;28;20029;-81
2023/06/21 09:06:25;;;;;;;4.78;3.08;;;;;;;;;;5019631;28;20402;-80
2023/06/21 09:08:54;;;;;;;5.60;3.28;;;;;;;;;;5030403;28;20029;-79
2023/06/21 09:11:23;;;;;;;6.75;4.35;;;;;;;;;;5027992;28;20028;-81
2023/06/21 09:13:50;;;;;;;10.93;4.88;;;;;;;;;;5036806;28;20474;-81
2023/06/21 09:16:16;;;;;;;10.60;4.63;;;;;;;;;;5018989;28;20037;-80
2023/06/21 09:18:43;;;;;;;6.93;4.95;;;;;;;;;;5033519;28;20033;-81
2023/06/21 09:21:09;;;;;;;7.40;4.90;;;;;;;;;;5015742;28;20445;-80
2023/06/21 09:23:39;;;;;;;6.60;4.40;;;;;;;;;;5016727;28;20092;-80
2023/06/21 09:26:05;;;;;;;7.60;4.60;;;;;;;;;;5005677;28;20500;-80
2023/06/21 09:28:31;;;;;;;8.73;4.90;;;;;;;;;;5019966;28;20025;-81
2023/06/21 09:30:56;;;;;;;6.30;4.32;;;;;;;;;;5032799;28;20520;-80
2023/06/21 09:33:25;;;;;;;12.38;5.07;;;;;;;;;;5021997;28;20036;-81
2023/06/21 09:35:51;;;;;;;10.32;6.18;;;;;;;;;;5016279;28;20022;-80
2023/06/21 09:38:28;;;;;;;10.05;5.10;;;;;;;;;;5021305;28;20032;-81
2023/06/21 09:40:54;;;;;;;8.40;5.07;;;;;;;;;;5019942;28;20125;-81
2023/06/21 09:43:20;;;;;;;6.90;5.20;;;;;;;;;;5027841;28;20057;-81
2023/06/21 09:46:09;;;;;;;6.65;5.07;;;;;;;;;;5033269;28;20108;-79
2023/06/21 09:48:35;;;;;;;6.20;5.55;;;;;;;;;;5031251;28;20021;-80
2023/06/21 09:51:06;;;;;;;9.10;5.82;;;;;;;;;;5018024;28;20040;-81
2023/06/21 09:53:31;;;;;;;6.72;5.63;;;;;;;;;;5014049;28;20386;-80
2023/06/21 09:56:00;;;;;;;8.88;6.40;;;;;;;;;;5015878;28;20030;-80
2023/06/21 09:58:25;;;;;;;11.15;6.35;;;;;;;;;;5015698;28;20045;-80
2023/06/21 10:00:51;;;;;;;7.97;6.30;;;;;;;;;;5017728;28;20120;-80
2023/06/21 10:03:20;;;;;;;7.55;5.90;;;;;;;;;;5019357;28;20025;-79
2023/06/21 10:05:56;;;;;;;5.32;4.60;;;;;;;;;;5017922;28;20120;-80
2023/06/21 10:08:31;;;;;;;5.75;4.03;;;;;;;;;;5032075;28;20018;-80
2023/06/21 10:10:56;;;;;;;7.78;5.10;;;;;;;;;;5032726;28;20071;-79
2023/06/21 10:13:33;;;;;;;7.30;5.53;;;;;;;;;;5027382;28;20030;-79
2023/06/21 10:16:02;;;;;;;9.00;5.50;;;;;;;;;;5037193;28;20026;-79
2023/06/21 10:18:28;;;;;;;7.93;4.90;;;;;;;;;;5015741;28;20044;-79
2023/06/21 10:21:00;;;;;;;5.75;4.75;;;;;;;;;;5040559;28;20021;-79
2023/06/21 10:23:28;;;;;;;7.30;4.95;;;;;;;;;;5018669;28;20393;-75
2023/06/21 10:25:57;;;;;;;8.25;4.30;;;;;;;;;;5022498;28;20033;-79
2023/06/21 10:28:26;;;;;;;8.20;5.22;;;;;;;;;;5037753;28;20032;-78
2023/06/21 10:30:56;;;;;;;7.85;5.30;;;;;;;;;;5015821;28;20070;-79
2023/06/21 10:33:23;;;;;;;7.93;5.35;;;;;;;;;;5037393;28;20473;-78
2023/06/21 10:35:53;;;;;;;7.47;5.43;;;;;;;;;;5032176;28;20500;-78
2023/06/21 10:38:47;;;;;;;8.30;5.22;;;;;;;;;;5032454;28;20018;-77
2023/06/21 10:41:14;;;;;;;8.45;5.22;;;;;;;;;;5040754;28;20393;-76
2023/06/21 10:43:42;;;;;;;6.90;5.28;;;;;;;;;;5011489;28;20511;-79
2023/06/21 10:46:09;;;;;;;9.18;5.00;;;;;;;;;;5020733;28;20112;-79
2023/06/21 10:48:35;;;;;;;5.72;4.78;;;;;;;;;;5029174;28;20091;-79
2023/06/21 10:51:05;;;;;;;6.35;4.57;;;;;;;;;;5023596;28;20029;-79
2023/06/21 10:53:35;;;;;;;6.53;3.10;;;;;;;;;;5015815;28;20200;-79
2023/06/21 10:56:04;;;;;;;4.45;3.10;;;;;;;;;;5029877;28;20474;-79
2023/06/21 10:58:29;;;;;;;5.60;3.72;;;;;;;;;;5013889;28;20084;-78
2023/06/21 11:00:56;;;;;;;5.78;3.38;;;;;;;;;;5019203;28;20448;-74
2023/06/21 11:03:28;;;;;;;5.00;3.15;;;;;;;;;;5027352;28;20032;-73
2023/06/21 11:06:28;;;;;;;3.92;2.55;;;;;;;;;;5013489;28;21174;-72
2023/06/21 11:08:54;;;;;;;7.40;3.72;;;;;;;;;;5028699;28;20033;-73
2023/06/21 11:11:32;;;;;;;5.72;3.78;;;;;;;;;;5008733;28;20025;-73
2023/06/21 11:14:00;;;;;;;5.18;3.88;;;;;;;;;;5033849;28;20100;-73
2023/06/21 11:16:26;;;;;;;5.65;3.90;;;;;;;;;;5027444;28;20501;-73
2023/06/21 11:18:55;;;;;;;5.72;3.50;;;;;;;;;;5016599;28;20123;-73
2023/06/21 11:21:49;;;;;;;6.50;3.92;;;;;;;;;;5013048;28;20482;-73
2023/06/21 11:24:16;;;;;;;5.95;4.45;;;;;;;;;;5012393;28;20049;-73
2023/06/21 11:26:51;;;;;;;5.90;3.70;;;;;;;;;;5035750;28;20109;-73
2023/06/21 11:29:17;;;;;;;5.07;3.67;;;;;;;;;;5021848;28;20036;-73
2023/06/21 11:31:42;;;;;;;7.68;3.63;;;;;;;;;;5017930;28;20029;-75
2023/06/21 11:34:22;;;;;;;5.10;3.72;;;;;;;;;;5016061;28;20025;-74
2023/06/21 11:36:47;;;;;;;4.78;3.72;;;;;;;;;;5035979;28;20034;-74
2023/06/21 11:39:13;;;;;;;4.75;3.80;;;;;;;;;;5039398;28;20120;-73
2023/06/21 11:41:44;;;;;;;5.22;3.45;;;;;;;;;;5015984;28;20508;-73
2023/06/21 11:44:14;;;;;;;6.93;3.72;;;;;;;;;;5014459;28;20547;-73
2023/06/21 11:46:40;;;;;;;5.15;3.50;;;;;;;;;;5018043;28;20033;-73
2023/06/21 11:49:06;;;;;;;4.43;2.97;;;;;;;;;;5022958;28;20025;-73
2023/06/21 11:51:32;;;;;;;5.70;3.15;;;;;;;;;;5016081;28;20021;-73
2023/06/21 11:53:58;;;;;;;5.18;2.58;;;;;;;;;;5030518;28;20100;-74
2023/06/21 11:56:32;;;;;;;7.75;2.90;;;;;;;;;;5018967;28;20109;-73
2023/06/21 11:58:58;;;;;;;8.25;2.72;;;;;;;;;;5018821;28;20125;-73
2023/06/21 12:01:24;;;;;;;6.78;3.20;;;;;;;;;;5031632;28;20477;-76
2023/06/21 12:03:59;;;;;;;5.45;2.30;;;;;;;;;;5010881;28;20626;-75
2023/06/21 12:06:25;;;;;;;6.28;2.47;;;;;;;;;;5012414;28;20457;-74
2023/06/21 12:08:56;;;;;;;4.72;2.70;;;;;;;;;;5041615;28;20037;-73
2023/06/21 12:11:25;;;;;;;5.68;2.50;;;;;;;;;;5035474;28;20021;-73
2023/06/21 12:13:50;;;;;;;4.15;2.50;;;;;;;;;;5023006;28;20398;-74
2023/06/21 12:16:16;;;;;;;4.93;2.63;;;;;;;;;;5018139;28;20024;-73
2023/06/21 12:18:41;;;;;;;3.28;2.08;;;;;;;;;;5014789;28;20502;-73
2023/06/21 12:21:07;;;;;;;3.63;1.80;;;;;;;;;;5018336;28;20452;-74
2023/06/21 12:23:32;;;;;;;2.75;1.65;;;;;;;;;;5016426;28;20029;-74
2023/06/21 12:26:03;;;;;;;4.65;2.00;;;;;;;;;;5017620;28;20013;-73
2023/06/21 12:28:31;;;;;;;7.45;2.25;;;;;;;;;;5033226;28;20049;-75
2023/06/21 12:31:04;;;;;;;4.18;2.03;;;;;;;;;;5033000;28;20040;-73
2023/06/21 12:33:31;;;;;;;5.78;2.00;;;;;;;;;;5011088;28;20029;-73
2023/06/21 12:36:20;;;;;;;4.72;1.88;;;;;;;;;;5029816;28;20022;-75
2023/06/21 12:38:56;;;;;;;4.38;2.40;;;;;;;;;;5029604;28;20025;-74
2023/06/21 12:41:24;;;;;;;3.78;2.00;;;;;;;;;;5013912;28;20044;-73
2023/06/21 12:43:53;;;;;;;4.82;2.15;;;;;;;;;;5015303;28;20033;-74
2023/06/21 12:46:20;;;;;;;4.05;2.05;;;;;;;;;;5033526;28;20021;-73
2023/06/21 12:48:48;;;;;;;4.88;2.22;;;;;;;;;;5031227;28;20032;-73
2023/06/21 12:51:25;;;;;;;3.47;1.88;;;;;;;;;;5015053;28;20057;-74
2023/06/21 12:54:12;;;;;;;5.07;1.90;;;;;;;;;;5014491;28;20076;-73
2023/06/21 12:56:44;;;;;;;3.25;2.05;;;;;;;;;;5032650;28;20053;-74
2023/06/21 12:59:09;;;;;;;5.07;1.87;;;;;;;;;;5014655;28;20040;-73
2023/06/21 13:01:36;;;;;;;3.65;1.80;;;;;;;;;;5021028;28;20032;-74
2023/06/21 13:04:09;;;;;;;5.75;1.83;;;;;;;;;;5036860;28;20025;-73
2023/06/21 13:06:36;;;;;;;2.88;1.90;;;;;;;;;;5030276;28;20119;-74
2023/06/21 13:09:03;;;;;;;3.90;1.92;;;;;;;;;;5015203;28;20032;-73
2023/06/21 13:11:29;;;;;;;3.45;1.83;;;;;;;;;;5015601;28;20112;-73
2023/06/21 13:13:54;;;;;;;3.50;1.80;;;;;;;;;;5035192;28;20160;-73
2023/06/21 13:16:20;;;;;;;2.53;1.48;;;;;;;;;;5032453;28;20036;-73
2023/06/21 13:18:47;;;;;;;3.00;1.60;;;;;;;;;;5031181;28;20030;-73
2023/06/21 13:21:16;;;;;;;4.53;1.60;;;;;;;;;;5031707;28;20025;-73
2023/06/21 13:23:43;;;;;;;4.93;1.85;;;;;;;;;;5029334;28;20398;-73
2023/06/21 13:26:09;;;;;;;3.15;1.83;;;;;;;;;;5015072;28;20445;-74
2023/06/21 13:28:34;;;;;;;3.45;1.45;;;;;;;;;;5026539;28;20033;-74
2023/06/21 13:31:00;;;;;;;5.47;1.60;;;;;;;;;;5034097;28;20025;-77
2023/06/21 13:33:25;;;;;;;2.35;1.40;;;;;;;;;;5033037;28;20096;-78
2023/06/21 13:35:51;;;;;;;2.90;1.70;;;;;;;;;;5033710;28;20028;-78
2023/06/21 13:38:17;;;;;;;3.67;1.75;;;;;;;;;;5032188;28;20033;-77
2023/06/21 13:40:44;;;;;;;4.47;1.88;;;;;;;;;;5034872;28;20030;-78
2023/06/21 13:43:09;;;;;;;4.38;1.60;;;;;;;;;;5013570;28;20079;-78
2023/06/21 13:45:35;;;;;;;5.45;1.98;;;;;;;;;;5015047;28;20038;-77
2023/06/21 13:48:02;;;;;;;3.92;1.80;;;;;;;;;;5036842;28;20112;-78
2023/06/21 13:50:27;;;;;;;2.83;1.60;;;;;;;;;;5037149;28;20025;-77
2023/06/21 13:52:52;;;;;;;2.80;1.60;;;;;;;;;;5034680;28;20083;-77
2023/06/21 13:55:18;;;;;;;3.90;1.83;;;;;;;;;;5022619;28;20029;-78
2023/06/21 13:57:44;;;;;;;5.07;1.88;;;;;;;;;;5014752;28;20029;-76
2023/06/21 14:00:14;;;;;;;4.18;2.15;;;;;;;;;;5020528;28;20032;-78
2023/06/21 14:02:41;;;;;;;4.28;1.90;;;;;;;;;;5031469;28;20056;-77
2023/06/21 14:05:07;;;;;;;5.15;2.20;;;;;;;;;;5031759;28;20386;-77
2023/06/21 14:07:34;;;;;;;4.68;1.73;;;;;;;;;;5014689;28;20033;-78
2023/06/21 14:10:00;;;;;;;2.83;1.50;;;;;;;;;;5015946;28;20025;-78
2023/06/21 14:12:28;;;;;;;3.67;2.00;;;;;;;;;;5013530;28;20021;-77
2023/06/21 14:14:53;;;;;;;3.92;2.05;;;;;;;;;;5014986;28;20025;-78
2023/06/21 14:17:19;;;;;;;4.10;1.80;;;;;;;;;;5030946;28;20033;-78
2023/06/21 14:19:44;;;;;;;3.92;2.10;;;;;;;;;;5026178;28;20033;-78
2023/06/21 14:22:10;;;;;;;3.58;1.88;;;;;;;;;;5009382;28;20038;-78
2023/06/21 14:24:38;;;;;;;3.75;1.90;;;;;;;;;;5012759;28;20430;-79
2023/06/21 14:27:04;;;;;;;4.45;2.05;;;;;;;;;;5033822;28;20036;-78
2023/06/21 14:29:29;;;;;;;3.75;2.45;;;;;;;;;;5029622;28;20026;-77
2023/06/21 14:31:54;;;;;;;6.80;2.25;;;;;;;;;;5014148;28;20055;-78
2023/06/21 14:34:20;;;;;;;5.90;2.80;;;;;;;;;;5033101;28;20044;-78
2023/06/21 14:36:45;;;;;;;5.07;3.17;;;;;;;;;;5038895;28;20032;-78